Time;durP1;ratioP1;P1;durP2;ratioP2;P2;SDS_P1;SDS_P2;PMS_P1;PMS_P2;Temp;Humidity;BMP_temperature;BMP_pressure;BME280_temperature;BME280_humidity;BME280_pressure;Samples;Min_cycle;Max_cycle;Signal;HPM_P1;HPM_P2
2024/01/14 00:00:14;;;;;;;92.28;52.47;;;8.50;95.70;;;;;;5113422;28;20038;-71
2024/01/14 00:03:18;;;;;;;89.95;51.88;;;8.80;96.30;;;;;;5114239;28;20042;-71
2024/01/14 00:06:22;;;;;;;95.25;56.78;;;6.50;95.10;;;;;;5114236;28;20066;-71
2024/01/14 00:09:26;;;;;;;103.20;57.22;;;6.40;95.60;;;;;;5113519;28;20039;-71
2024/01/14 00:12:30;;;;;;;101.20;57.53;;;6.50;94.90;;;;;;5114020;28;20240;-71
2024/01/14 00:15:34;;;;;;;97.32;59.00;;;7.70;95.70;;;;;;5113760;28;20042;-71
2024/01/14 00:18:38;;;;;;;89.75;55.78;;;6.50;94.90;;;;;;5113987;28;20047;-70
2024/01/14 00:21:42;;;;;;;97.78;59.45;;;6.60;94.60;;;;;;5113541;28;20058;-71
2024/01/14 00:24:46;;;;;;;93.38;58.22;;;7.90;95.70;;;;;;5113816;28;20059;-71
2024/01/14 00:27:50;;;;;;;95.80;55.72;;;6.10;95.30;;;;;;5113195;28;20038;-71
2024/01/14 00:30:54;;;;;;;104.38;60.92;;;7.20;96.20;;;;;;5113627;28;20058;-71
2024/01/14 00:33:58;;;;;;;108.75;60.47;;;8.40;96.50;;;;;;5113585;28;20043;-70
2024/01/14 00:37:02;;;;;;;96.07;57.22;;;6.10;95.80;;;;;;5112767;28;20046;-70
2024/01/14 00:40:07;;;;;;;97.32;56.22;;;5.90;95.90;;;;;;5113399;28;20042;-71
2024/01/14 00:43:11;;;;;;;104.03;56.10;;;7.20;95.90;;;;;;5113146;28;20042;-71
2024/01/14 00:46:15;;;;;;;91.22;52.35;;;;;;;;;;5112900;28;20047;-70
2024/01/14 00:49:19;;;;;;;96.47;54.08;;;5.80;96.90;;;;;;5112417;28;20047;-71
2024/01/14 00:52:23;;;;;;;87.32;50.10;;;8.00;97.40;;;;;;5113062;28;20062;-71
2024/01/14 00:55:27;;;;;;;91.75;53.22;;;7.60;97.10;;;;;;5113092;28;20043;-71
2024/01/14 00:58:31;;;;;;;95.82;54.78;;;6.20;97.00;;;;;;5112266;28;20046;-71
2024/01/14 01:01:35;;;;;;;99.13;56.42;;;8.10;97.20;;;;;;5113032;28;20046;-71
2024/01/14 01:04:39;;;;;;;96.45;56.72;;;6.50;96.60;;;;;;5111916;28;20046;-70
2024/01/14 01:07:43;;;;;;;98.95;57.45;;;6.50;96.40;;;;;;5112961;28;20038;-71
2024/01/14 01:10:48;;;;;;;102.30;58.20;;;6.10;95.80;;;;;;5100248;28;20046;-71
2024/01/14 01:13:53;;;;;;;101.03;58.97;;;7.50;96.40;;;;;;5112693;28;20047;-71
2024/01/14 01:16:57;;;;;;;102.15;60.13;;;6.10;96.10;;;;;;5112297;28;20043;-71
2024/01/14 01:20:01;;;;;;;98.63;58.60;;;8.20;97.20;;;;;;5111761;28;20073;-71
2024/01/14 01:23:06;;;;;;;97.30;57.00;;;5.90;95.50;;;;;;5111817;28;20038;-71
2024/01/14 01:26:09;;;;;;;102.22;55.88;;;6.40;97.00;;;;;;5112597;28;20051;-71
2024/01/14 01:29:13;;;;;;;100.68;57.65;;;5.80;96.70;;;;;;5111426;28;20513;-71
2024/01/14 01:32:18;;;;;;;105.65;59.33;;;5.80;96.30;;;;;;5112104;28;20391;-71
2024/01/14 01:35:22;;;;;;;103.50;55.78;;;;;;;;;;5112450;28;20046;-71
2024/01/14 01:38:26;;;;;;;98.93;59.25;;;6.00;96.00;;;;;;5112193;28;20050;-71
2024/01/14 01:41:30;;;;;;;102.18;59.28;;;5.30;96.60;;;;;;5111706;28;20039;-71
2024/01/14 01:44:34;;;;;;;106.47;61.78;;;6.90;97.00;;;;;;5111838;28;20051;-71
2024/01/14 01:47:39;;;;;;;98.90;59.22;;;5.80;96.10;;;;;;5111179;28;20402;-70
2024/01/14 01:50:43;;;;;;;97.63;58.67;;;7.20;97.40;;;;;;5111051;28;20047;-71
2024/01/14 01:53:48;;;;;;;105.05;59.60;;;7.90;97.70;;;;;;5110974;28;20066;-71
2024/01/14 01:56:53;;;;;;;101.18;59.80;;;5.70;96.60;;;;;;5111218;28;20505;-70
2024/01/14 01:59:57;;;;;;;93.45;54.05;;;6.50;97.30;;;;;;5112169;28;20031;-70
2024/01/14 02:03:02;;;;;;;83.22;48.38;;;8.00;97.90;;;;;;5111709;28;20047;-70
2024/01/14 02:06:07;;;;;;;86.40;49.17;;;6.40;97.80;;;;;;5111963;28;20077;-70
2024/01/14 02:09:11;;;;;;;79.32;44.60;;;6.70;97.20;;;;;;5111847;28;20058;-70
2024/01/14 02:12:15;;;;;;;65.05;39.63;;;5.60;97.50;;;;;;5111566;28;20047;-70
2024/01/14 02:15:19;;;;;;;64.53;38.03;;;5.60;97.00;;;;;;5111909;28;20154;-70
2024/01/14 02:18:23;;;;;;;63.70;38.40;;;4.10;97.20;;;;;;5111791;28;20510;-70
2024/01/14 02:21:32;;;;;;;60.47;37.92;;;5.60;97.00;;;;;;5110589;28;20502;-70
2024/01/14 02:24:38;;;;;;;64.78;36.92;;;9.40;98.00;;;;;;5111604;28;20070;-70
2024/01/14 02:27:42;;;;;;;65.53;37.40;;;7.60;97.90;;;;;;5110585;28;20043;-70
2024/01/14 02:30:46;;;;;;;68.22;38.38;;;5.70;96.90;;;;;;5110709;28;20046;-70
2024/01/14 02:33:50;;;;;;;67.43;38.65;;;5.60;96.60;;;;;;5111740;28;20050;-70
2024/01/14 02:36:55;;;;;;;69.80;38.53;;;6.80;97.20;;;;;;5110511;28;20047;-70
2024/01/14 02:39:59;;;;;;;67.25;39.30;;;6.70;97.90;;;;;;5111216;28;20047;-70
2024/01/14 02:43:04;;;;;;;68.88;38.17;;;;;;;;;;5111485;28;20039;-71
2024/01/14 02:46:08;;;;;;;68.53;37.58;;;;;;;;;;5110704;28;20410;-71
2024/01/14 02:49:12;;;;;;;61.38;38.15;;;5.80;97.50;;;;;;5111512;28;20214;-71
2024/01/14 02:52:16;;;;;;;67.55;40.90;;;6.30;97.30;;;;;;5111283;28;20046;-70
2024/01/14 02:55:20;;;;;;;72.60;40.13;;;5.70;97.30;;;;;;5110511;28;20058;-70
2024/01/14 02:58:24;;;;;;;69.68;40.10;;;7.30;97.30;;;;;;5110409;28;20062;-70
2024/01/14 03:01:28;;;;;;;62.38;37.40;;;5.80;97.50;;;;;;5110848;28;20103;-70
2024/01/14 03:04:32;;;;;;;64.97;38.22;;;3.60;96.80;;;;;;5110950;28;20042;-70
2024/01/14 03:07:36;;;;;;;64.30;38.05;;;5.80;97.20;;;;;;5111611;28;20042;-70
2024/01/14 03:10:40;;;;;;;57.95;37.15;;;7.70;97.70;;;;;;5110828;28;20043;-70
2024/01/14 03:13:44;;;;;;;63.72;37.35;;;6.00;97.00;;;;;;5111114;28;20386;-70
2024/01/14 03:16:48;;;;;;;66.90;37.28;;;6.40;97.40;;;;;;5111113;28;20051;-70
2024/01/14 03:19:52;;;;;;;77.93;41.42;;;7.00;97.60;;;;;;5110818;28;20510;-70
2024/01/14 03:22:56;;;;;;;67.88;37.15;;;7.40;97.90;;;;;;5111174;28;20050;-70
2024/01/14 03:26:00;;;;;;;62.22;38.15;;;;;;;;;;5111276;28;20058;-70
2024/01/14 03:29:04;;;;;;;67.68;40.13;;;;;;;;;;5110887;28;20054;-70
2024/01/14 03:32:08;;;;;;;61.95;36.45;;;4.30;97.50;;;;;;5110988;28;20043;-70
2024/01/14 03:35:12;;;;;;;59.22;35.55;;;5.90;98.20;;;;;;5110838;28;20498;-70
2024/01/14 03:38:16;;;;;;;54.75;33.53;;;;;;;;;;5111079;28;20490;-70
2024/01/14 03:41:21;;;;;;;50.85;32.90;;;;;;;;;;5110021;28;20043;-70
2024/01/14 03:44:25;;;;;;;55.42;33.95;;;6.30;97.10;;;;;;5112573;28;20059;-70
2024/01/14 03:47:29;;;;;;;59.65;34.28;;;6.10;98.60;;;;;;5114601;28;20105;-70
2024/01/14 03:50:33;;;;;;;54.03;32.00;;;10.00;99.40;;;;;;5114211;28;20038;-70
2024/01/14 03:56:59;;;;;;;52.38;31.38;;;9.70;99.90;;;;;;5113996;28;20046;-70
2024/01/14 04:00:03;;;;;;;52.25;30.73;;;10.20;99.90;;;;;;5114163;28;20501;-71
2024/01/14 04:03:08;;;;;;;48.38;30.85;;;9.90;99.90;;;;;;5101600;28;20039;-70
2024/01/14 04:06:12;;;;;;;55.28;31.45;;;6.60;98.50;;;;;;5113867;28;20400;-70
2024/01/14 04:09:15;;;;;;;49.65;32.85;;;10.40;99.90;;;;;;5113851;28;20038;-70
2024/01/14 04:12:19;;;;;;;55.33;33.03;;;6.00;99.90;;;;;;5113287;28;20051;-70
2024/01/14 04:15:24;;;;;;;46.08;27.83;;;9.10;99.90;;;;;;5114102;28;20501;-70
2024/01/14 04:18:29;;;;;;;48.38;29.58;;;6.70;99.10;;;;;;5113711;28;20050;-70
2024/01/14 04:21:33;;;;;;;49.33;31.83;;;6.20;99.70;;;;;;5113872;28;20387;-70
2024/01/14 04:24:37;;;;;;;50.15;30.65;;;6.40;99.90;;;;;;5114353;28;20043;-70
2024/01/14 04:27:41;;;;;;;41.88;26.73;;;6.90;99.00;;;;;;5113235;28;20047;-70
2024/01/14 04:30:45;;;;;;;36.85;25.65;;;8.30;99.90;;;;;;5113537;28;20038;-70
2024/01/14 04:33:49;;;;;;;37.63;25.52;;;7.10;98.70;;;;;;5114028;28;20050;-70
2024/01/14 04:36:53;;;;;;;44.10;27.42;;;6.80;99.80;;;;;;5116086;28;20477;-70
2024/01/14 04:39:57;;;;;;;42.55;26.48;;;6.80;99.60;;;;;;5113552;28;20054;-70
2024/01/14 04:43:01;;;;;;;40.80;25.85;;;6.80;99.50;;;;;;5112509;28;20042;-71
2024/01/14 04:46:08;;;;;;;47.88;26.77;;;4.30;98.90;;;;;;5112358;28;20050;-70
2024/01/14 04:49:11;;;;;;;37.13;26.73;;;6.50;98.90;;;;;;5113180;28;20047;-70
2024/01/14 04:52:16;;;;;;;44.25;28.77;;;;;;;;;;5113134;28;20043;-70
2024/01/14 04:55:20;;;;;;;48.00;28.58;;;6.30;99.90;;;;;;5113034;28;20391;-70
2024/01/14 04:58:24;;;;;;;44.58;26.25;;;;;;;;;;5113063;28;20046;-70
2024/01/14 05:01:29;;;;;;;44.17;26.77;;;6.30;99.90;;;;;;5113081;28;20497;-70
2024/01/14 05:04:33;;;;;;;45.72;28.25;;;7.40;99.90;;;;;;5112759;28;20046;-70
2024/01/14 05:07:36;;;;;;;44.33;27.75;;;6.40;99.90;;;;;;5112149;28;20046;-70
2024/01/14 05:10:40;;;;;;;43.20;27.83;;;6.20;99.90;;;;;;5112881;28;20520;-70
2024/01/14 05:13:44;;;;;;;43.97;28.05;;;6.20;99.90;;;;;;5112983;28;20639;-70
2024/01/14 05:16:48;;;;;;;45.08;28.45;;;6.20;99.90;;;;;;5112893;28;20038;-70
2024/01/14 05:19:53;;;;;;;45.35;28.65;;;9.50;99.90;;;;;;5112397;28;20070;-70
2024/01/14 05:22:57;;;;;;;46.78;28.63;;;9.80;99.90;;;;;;5112523;28;20038;-70
2024/01/14 05:26:04;;;;;;;43.17;29.27;;;6.40;99.90;;;;;;5112414;28;20062;-70
2024/01/14 05:29:08;;;;;;;43.15;29.23;;;8.50;99.90;;;;;;5112433;28;20399;-70
2024/01/14 05:32:14;;;;;;;49.05;31.17;;;8.60;99.90;;;;;;5112563;28;20054;-70
2024/01/14 05:35:18;;;;;;;47.75;30.30;;;;;;;;;;5112391;28;20042;-70
2024/01/14 05:38:22;;;;;;;44.65;29.58;;;6.80;99.90;;;;;;5112032;28;20043;-70
2024/01/14 05:41:26;;;;;;;50.28;29.90;;;10.50;99.90;;;;;;5111353;28;20041;-70
2024/01/14 05:44:33;;;;;;;50.40;31.15;;;10.10;99.90;;;;;;5111055;28;20046;-70
2024/01/14 05:47:37;;;;;;;44.92;30.83;;;6.90;99.90;;;;;;5112237;28;20038;-70
2024/01/14 05:50:41;;;;;;;47.10;30.33;;;10.10;99.90;;;;;;5112191;28;20042;-71
2024/01/14 05:53:45;;;;;;;47.22;30.05;;;6.90;99.90;;;;;;5099648;28;20038;-71
2024/01/14 05:56:49;;;;;;;47.38;31.60;;;6.40;99.90;;;;;;5111849;28;20034;-71
2024/01/14 05:59:53;;;;;;;42.63;29.98;;;6.60;99.90;;;;;;5111981;28;20046;-71
2024/01/14 06:02:57;;;;;;;45.35;30.77;;;6.40;99.90;;;;;;5112007;28;20042;-70
2024/01/14 06:06:01;;;;;;;43.08;30.48;;;6.60;99.90;;;;;;5110566;28;20061;-70
2024/01/14 06:09:05;;;;;;;42.78;30.63;;;6.90;99.90;;;;;;5110750;28;20506;-70
2024/01/14 06:12:08;;;;;;;43.88;30.25;;;6.80;99.90;;;;;;5111129;28;20054;-71
2024/01/14 06:15:13;;;;;;;49.53;33.00;;;;;;;;;;5111577;28;20046;-70
2024/01/14 06:18:17;;;;;;;48.53;30.23;;;8.80;99.90;;;;;;5111695;28;20043;-70
2024/01/14 06:21:21;;;;;;;52.42;31.45;;;6.60;99.90;;;;;;5110887;28;20055;-70
2024/01/14 06:24:25;;;;;;;51.42;31.88;;;8.70;99.90;;;;;;5111242;28;20043;-70
2024/01/14 06:27:28;;;;;;;49.90;31.02;;;9.10;99.90;;;;;;5111679;28;20047;-70
2024/01/14 06:30:34;;;;;;;49.92;29.63;;;6.40;99.90;;;;;;5099010;28;20043;-70
2024/01/14 06:33:38;;;;;;;44.30;28.42;;;9.10;99.90;;;;;;5111401;28;20046;-70
2024/01/14 06:37:01;;;;;;;43.10;27.70;;;6.10;99.90;;;;;;5111624;28;20051;-71
2024/01/14 06:40:05;;;;;;;40.67;26.67;;;6.10;99.90;;;;;;5111632;28;20501;-70
2024/01/14 06:43:10;;;;;;;43.72;26.23;;;;;;;;;;5111398;28;20039;-71
2024/01/14 06:46:15;;;;;;;38.92;24.40;;;6.30;99.90;;;;;;5111199;28;20070;-71
2024/01/14 06:49:20;;;;;;;34.65;23.05;;;;;;;;;;5111509;28;20039;-71
2024/01/14 06:52:24;;;;;;;37.55;21.85;;;6.20;99.90;;;;;;5111507;28;20051;-71
2024/01/14 06:55:28;;;;;;;35.50;22.63;;;7.30;99.90;;;;;;5111402;28;20043;-71
2024/01/14 06:58:33;;;;;;;35.25;21.80;;;6.90;99.90;;;;;;5110723;28;20113;-71
2024/01/14 07:01:37;;;;;;;37.45;23.20;;;6.90;99.90;;;;;;5111244;28;20047;-71
2024/01/14 07:04:41;;;;;;;41.35;26.02;;;7.10;99.90;;;;;;5110959;28;20059;-71
2024/01/14 07:07:45;;;;;;;41.13;24.88;;;6.50;99.90;;;;;;5111304;28;20058;-71
2024/01/14 07:10:49;;;;;;;40.50;24.38;;;6.60;99.90;;;;;;5110075;28;20050;-71
2024/01/14 07:13:52;;;;;;;38.08;23.45;;;6.30;99.90;;;;;;5110052;28;20043;-72
2024/01/14 07:16:56;;;;;;;36.10;23.75;;;6.90;99.90;;;;;;5110945;28;20046;-71
2024/01/14 07:20:01;;;;;;;33.83;22.27;;;6.50;99.90;;;;;;5113762;28;20045;-71
2024/01/14 07:23:05;;;;;;;28.75;18.40;;;;;;;;;;5114334;28;20038;-71
2024/01/14 07:26:17;;;;;;;33.55;18.25;;;8.50;99.90;;;;;;5114734;28;20051;-71
2024/01/14 07:29:21;;;;;;;21.55;14.73;;;6.60;99.90;;;;;;5114836;28;20058;-71
2024/01/14 07:32:26;;;;;;;25.73;14.07;;;;;;;;;;5114786;28;20407;-71
2024/01/14 07:35:30;;;;;;;22.17;13.27;;;5.80;99.90;;;;;;5114667;28;20042;-71
2024/01/14 07:38:34;;;;;;;22.90;13.82;;;10.20;99.90;;;;;;5114488;28;20047;-71
2024/01/14 07:41:39;;;;;;;20.63;12.23;;;7.70;99.90;;;;;;5114713;28;20046;-71
2024/01/14 07:44:46;;;;;;;20.65;13.77;;;8.80;99.90;;;;;;5113696;28;20042;-71
2024/01/14 07:47:50;;;;;;;19.35;13.55;;;11.10;99.90;;;;;;5113867;28;20402;-71
2024/01/14 07:50:54;;;;;;;33.60;18.40;;;12.40;99.90;;;;;;5114473;28;20042;-71
2024/01/14 07:53:58;;;;;;;39.03;20.70;;;12.80;99.90;;;;;;5114519;28;20046;-71
2024/01/14 07:57:02;;;;;;;26.90;15.43;;;;;;;;;;5114458;28;20047;-72
2024/01/14 08:00:07;;;;;;;28.60;16.27;;;11.90;99.90;;;;;;5114372;28;20051;-71
2024/01/14 08:03:15;;;;;;;23.05;15.45;;;9.70;99.90;;;;;;5113049;28;20164;-71
2024/01/14 08:06:22;;;;;;;24.00;14.95;;;10.90;99.90;;;;;;5113969;28;20479;-72
2024/01/14 08:09:26;;;;;;;23.00;15.23;;;8.10;99.90;;;;;;5113944;28;20034;-72
2024/01/14 08:12:29;;;;;;;30.15;16.55;;;7.80;99.90;;;;;;5113839;28;20043;-72
2024/01/14 08:15:33;;;;;;;26.08;15.15;;;7.60;99.90;;;;;;5114166;28;20058;-72
2024/01/14 08:18:37;;;;;;;27.70;14.48;;;8.10;99.90;;;;;;5113967;28;20189;-72
2024/01/14 08:21:42;;;;;;;21.48;13.55;;;11.70;99.90;;;;;;5113737;28;20054;-72
2024/01/14 08:24:46;;;;;;;26.73;13.07;;;11.50;99.90;;;;;;5113877;28;20062;-72
2024/01/14 08:27:52;;;;;;;19.40;12.68;;;11.70;99.90;;;;;;5112747;28;20043;-72
2024/01/14 08:30:56;;;;;;;19.73;12.68;;;;;;;;;;5113404;28;20042;-72
2024/01/14 08:34:01;;;;;;;18.85;11.80;;;8.50;99.90;;;;;;5113944;28;20050;-72
2024/01/14 08:37:05;;;;;;;19.90;12.07;;;8.50;99.90;;;;;;5113763;28;20054;-72
2024/01/14 08:40:13;;;;;;;15.50;10.65;;;11.60;99.90;;;;;;5112808;28;20050;-72
2024/01/14 08:43:18;;;;;;;21.15;12.05;;;11.90;99.90;;;;;;5113543;28;20383;-72
2024/01/14 08:46:23;;;;;;;19.40;11.70;;;9.10;99.90;;;;;;5112264;28;20418;-71
2024/01/14 08:49:29;;;;;;;19.55;14.18;;;9.30;99.90;;;;;;5112384;28;20051;-72
2024/01/14 08:52:33;;;;;;;25.83;15.65;;;8.90;99.90;;;;;;5113265;28;20046;-72
2024/01/14 08:55:37;;;;;;;35.85;20.17;;;8.90;99.90;;;;;;5112185;28;20038;-72
2024/01/14 08:58:41;;;;;;;31.40;20.35;;;8.60;99.90;;;;;;5112896;28;20061;-72
2024/01/14 09:01:45;;;;;;;32.40;16.92;;;8.90;99.90;;;;;;5113195;28;20048;-72
2024/01/14 09:04:49;;;;;;;35.50;20.52;;;8.80;99.90;;;;;;5113110;28;20047;-72
2024/01/14 09:07:53;;;;;;;49.50;24.80;;;8.60;99.90;;;;;;5113060;28;20051;-72
2024/01/14 09:10:58;;;;;;;44.35;25.13;;;8.80;99.90;;;;;;5112064;28;20042;-72
2024/01/14 09:14:02;;;;;;;48.08;28.17;;;8.80;99.90;;;;;;5112701;28;20050;-72
2024/01/14 09:17:06;;;;;;;50.22;31.73;;;9.20;99.90;;;;;;5112629;28;20042;-72
2024/01/14 09:20:10;;;;;;;51.60;28.67;;;9.10;99.90;;;;;;5112296;28;20058;-72
2024/01/14 09:23:14;;;;;;;48.40;28.65;;;9.20;99.90;;;;;;5112016;28;20506;-72
2024/01/14 09:26:18;;;;;;;50.60;30.88;;;8.40;99.90;;;;;;5112426;28;20054;-72
2024/01/14 09:29:22;;;;;;;37.80;27.45;;;9.70;99.90;;;;;;5112400;28;20055;-71
2024/01/14 09:32:26;;;;;;;41.30;25.73;;;8.90;99.90;;;;;;5112253;28;20050;-71
2024/01/14 09:35:30;;;;;;;40.17;25.08;;;8.80;99.90;;;;;;5112481;28;20064;-71
2024/01/14 09:38:35;;;;;;;38.15;25.73;;;9.70;99.90;;;;;;5111295;28;20051;-70
2024/01/14 09:42:07;;;;;;;45.50;28.80;;;9.30;99.90;;;;;;5111256;28;20054;-70
2024/01/14 09:45:11;;;;;;;51.58;29.40;;;8.80;99.90;;;;;;5112139;28;20121;-70
2024/01/14 09:48:18;;;;;;;49.63;30.80;;;;;;;;;;5112001;28;20395;-71
2024/01/14 09:51:30;;;;;;;43.20;28.40;;;9.00;99.90;;;;;;5112106;28;20394;-70
2024/01/14 09:54:33;;;;;;;34.20;22.45;;;9.20;99.90;;;;;;5111093;28;20050;-69
2024/01/14 09:57:41;;;;;;;33.58;21.88;;;9.10;99.90;;;;;;5112213;28;20066;-70
2024/01/14 10:00:46;;;;;;;29.42;18.77;;;9.20;99.90;;;;;;5111832;28;20039;-70
2024/01/14 10:03:51;;;;;;;33.60;21.67;;;9.20;99.90;;;;;;5111851;28;20046;-69
2024/01/14 10:06:56;;;;;;;39.10;25.48;;;9.20;99.90;;;;;;5111719;28;20055;-70
2024/01/14 10:10:00;;;;;;;32.72;21.00;;;9.70;99.90;;;;;;5111991;28;20421;-70
2024/01/14 10:13:05;;;;;;;29.35;19.83;;;9.80;99.90;;;;;;5111732;28;20054;-70
2024/01/14 10:16:12;;;;;;;34.40;20.90;;;9.40;99.90;;;;;;5111638;28;20042;-70
2024/01/14 10:19:15;;;;;;;34.95;24.58;;;9.40;99.90;;;;;;5111281;28;20051;-70
2024/01/14 10:22:23;;;;;;;30.83;21.38;;;9.40;99.90;;;;;;5099021;28;20034;-70
2024/01/14 10:25:27;;;;;;;30.38;21.90;;;10.00;99.90;;;;;;5111630;28;20391;-70
2024/01/14 10:28:35;;;;;;;32.65;22.23;;;9.60;99.90;;;;;;5111638;28;20046;-70
2024/01/14 10:31:39;;;;;;;41.15;26.88;;;9.60;99.90;;;;;;5111412;28;20035;-70
2024/01/14 10:34:44;;;;;;;40.85;25.35;;;9.70;99.90;;;;;;5111539;28;20046;-70
2024/01/14 10:37:48;;;;;;;40.38;24.63;;;10.20;99.90;;;;;;5111691;28;20039;-70
2024/01/14 10:40:52;;;;;;;40.42;26.25;;;9.80;99.90;;;;;;5098684;28;20050;-70
2024/01/14 10:43:57;;;;;;;73.57;44.70;;;10.40;99.90;;;;;;5111483;28;20046;-70
2024/01/14 10:47:09;;;;;;;65.63;38.47;;;10.60;99.90;;;;;;5111123;28;20548;-70
2024/01/14 10:50:17;;;;;;;47.22;29.95;;;10.30;99.90;;;;;;5110261;28;20518;-70
2024/01/14 10:53:24;;;;;;;47.70;31.02;;;10.80;99.90;;;;;;5112737;28;20062;-70
2024/01/14 10:56:34;;;;;;;42.75;27.00;;;10.60;99.90;;;;;;5115443;28;20047;-70
2024/01/14 10:59:41;;;;;;;45.47;27.77;;;10.90;99.90;;;;;;5115471;28;20050;-70
2024/01/14 11:02:45;;;;;;;33.70;24.08;;;11.30;99.90;;;;;;5114732;28;20387;-71
2024/01/14 11:05:51;;;;;;;51.45;30.38;;;11.30;99.90;;;;;;5115275;28;20050;-71
2024/01/14 11:08:55;;;;;;;32.70;22.38;;;;;;;;;;5115058;28;20497;-71
2024/01/14 11:12:10;;;;;;;29.20;19.30;;;11.70;99.90;;;;;;5115373;28;20390;-71
2024/01/14 11:15:28;;;;;;;37.10;22.30;;;11.80;99.90;;;;;;5114810;28;20418;-71
2024/01/14 11:18:55;;;;;;;25.02;16.73;;;12.10;99.90;;;;;;5114159;28;20030;-71
2024/01/14 11:22:21;;;;;;;28.02;19.95;;;12.20;99.90;;;;;;5114988;28;20091;-71
2024/01/14 11:25:31;;;;;;;22.70;16.08;;;12.30;99.90;;;;;;5114965;28;20039;-71
2024/01/14 11:28:35;;;;;;;20.20;14.18;;;;;;;;;;5114127;28;20039;-72
2024/01/14 11:32:08;;;;;;;23.15;16.52;;;12.30;99.90;;;;;;5114766;28;20043;-72
2024/01/14 11:35:33;;;;;;;24.35;15.23;;;11.80;99.90;;;;;;5114833;28;20050;-70
2024/01/14 11:38:49;;;;;;;24.48;15.60;;;12.80;99.90;;;;;;5114998;28;20043;-70
2024/01/14 11:41:53;;;;;;;28.02;16.33;;;;;;;;;;5114871;28;20042;-70
2024/01/14 11:45:00;;;;;;;20.52;14.27;;;12.80;99.90;;;;;;5113595;28;20035;-70
2024/01/14 11:48:06;;;;;;;23.05;16.02;;;12.80;99.90;;;;;;5114409;28;20046;-70
2024/01/14 11:51:10;;;;;;;25.98;17.50;;;;;;;;;;5114483;28;20486;-70
2024/01/14 11:54:14;;;;;;;26.20;18.50;;;;;;;;;;5113491;28;20401;-70
2024/01/14 11:57:24;;;;;;;27.98;19.67;;;12.50;99.90;;;;;;5114318;28;20047;-70
2024/01/14 12:00:29;;;;;;;28.88;19.60;;;;;;;;;;5114084;28;20398;-70
2024/01/14 12:03:33;;;;;;;33.15;22.27;;;;;;;;;;5114313;28;20490;-70
2024/01/14 12:06:41;;;;;;;25.88;18.67;;;12.50;99.90;;;;;;5114176;28;20058;-70
2024/01/14 12:09:55;;;;;;;25.98;18.55;;;12.40;99.90;;;;;;5113759;28;20109;-70
2024/01/14 12:13:03;;;;;;;40.88;26.27;;;12.60;99.90;;;;;;5114099;28;20054;-70
2024/01/14 12:16:07;;;;;;;33.67;21.63;;;;;;;;;;5114035;28;20457;-70
2024/01/14 12:19:16;;;;;;;29.58;19.05;;;;;;;;;;5113373;28;20059;-71
2024/01/14 12:22:20;;;;;;;42.90;28.70;;;;;;;;;;5113810;28;20039;-71
2024/01/14 12:25:25;;;;;;;33.45;21.20;;;;;;;;;;5113253;28;20039;-70
2024/01/14 12:28:29;;;;;;;35.40;21.48;;;;;;;;;;5112478;28;20035;-71
2024/01/14 12:31:34;;;;;;;27.58;17.90;;;;;;;;;;5112584;28;20038;-71
2024/01/14 12:34:43;;;;;;;32.40;18.17;;;12.80;99.90;;;;;;5114046;28;20042;-71
2024/01/14 12:37:48;;;;;;;24.10;16.63;;;11.30;99.90;;;;;;5113539;28;20047;-71
2024/01/14 12:40:53;;;;;;;25.98;17.65;;;12.80;99.90;;;;;;5113735;28;20050;-70
2024/01/14 12:43:58;;;;;;;27.70;18.15;;;;;;;;;;5112901;28;20597;-71
2024/01/14 12:47:06;;;;;;;27.35;16.67;;;12.80;99.90;;;;;;5113407;28;20051;-71
2024/01/14 12:50:12;;;;;;;31.60;19.15;;;12.60;99.90;;;;;;5112593;28;20062;-71
2024/01/14 12:53:17;;;;;;;26.20;16.15;;;;;;;;;;5112337;28;20046;-71
2024/01/14 12:56:25;;;;;;;20.10;10.77;;;;;;;;;;5113272;28;20038;-71
2024/01/14 12:59:30;;;;;;;13.23;7.13;;;12.40;99.90;;;;;;5112244;28;20050;-71
2024/01/14 13:02:35;;;;;;;10.65;6.20;;;;;;;;;;5112365;28;20051;-71
2024/01/14 13:05:39;;;;;;;12.45;6.45;;;;;;;;;;5112991;28;20035;-71
2024/01/14 13:08:44;;;;;;;11.27;5.50;;;;;;;;;;5113114;28;20372;-71
2024/01/14 13:11:48;;;;;;;9.38;5.10;;;;;;;;;;5112977;28;20479;-71
2024/01/14 13:14:52;;;;;;;11.10;5.38;;;;;;;;;;5112042;28;20051;-71
2024/01/14 13:17:58;;;;;;;13.18;6.05;;;;;;;;;;5112565;28;20036;-71
2024/01/14 13:21:02;;;;;;;13.13;6.95;;;;;;;;;;5111751;28;20052;-71
2024/01/14 13:24:08;;;;;;;13.80;8.05;;;;;;;;;;5112665;28;20035;-71
2024/01/14 13:27:12;;;;;;;11.68;6.63;;;;;;;;;;5112468;28;20048;-70
2024/01/14 13:30:18;;;;;;;11.15;6.45;;;;;;;;;;5112566;28;20035;-71
2024/01/14 13:33:22;;;;;;;15.73;7.40;;;;;;;;;;5111752;28;20035;-70
2024/01/14 13:36:26;;;;;;;9.93;6.90;;;;;;;;;;5111684;28;20047;-71
2024/01/14 13:39:30;;;;;;;13.05;8.10;;;;;;;;;;5112127;28;20028;-71
2024/01/14 13:42:34;;;;;;;23.05;14.05;;;;;;;;;;5112494;28;20040;-71
2024/01/14 13:45:39;;;;;;;24.52;16.33;;;;;;;;;;5112071;28;20407;-71
2024/01/14 13:48:43;;;;;;;56.05;30.20;;;;;;;;;;5112167;28;20039;-71
2024/01/14 13:51:48;;;;;;;81.63;42.55;;;11.80;99.90;;;;;;5111121;28;20062;-71
2024/01/14 13:54:52;;;;;;;50.60;26.80;;;;;;;;;;5111797;28;20042;-71
2024/01/14 13:57:56;;;;;;;34.92;18.77;;;;;;;;;;5111969;28;20505;-72
2024/01/14 14:01:00;;;;;;;26.40;14.70;;;;;;;;;;5111990;28;20050;-72
2024/01/14 14:04:05;;;;;;;24.38;13.38;;;;;;;;;;5112018;28;20035;-72
2024/01/14 14:07:09;;;;;;;24.50;13.65;;;;;;;;;;5111611;28;20426;-71
2024/01/14 14:10:13;;;;;;;20.73;13.13;;;;;;;;;;5111642;28;20042;-72
2024/01/14 14:13:18;;;;;;;23.58;13.20;;;;;;;;;;5111952;28;20054;-72
2024/01/14 14:16:22;;;;;;;19.15;10.52;;;;;;;;;;5111029;28;20042;-72
2024/01/14 14:19:26;;;;;;;14.85;9.85;;;;;;;;;;5111419;28;20054;-72
2024/01/14 14:22:32;;;;;;;15.80;9.50;;;;;;;;;;5110916;28;20040;-72
2024/01/14 14:25:36;;;;;;;13.82;8.55;;;;;;;;;;5110863;28;20506;-72
2024/01/14 14:28:40;;;;;;;14.25;8.90;;;;;;;;;;5111412;28;20040;-72
2024/01/14 14:31:45;;;;;;;14.52;9.23;;;;;;;;;;5111758;28;20039;-72
2024/01/14 14:34:49;;;;;;;14.25;8.90;;;;;;;;;;5111609;28;20475;-72
2024/01/14 14:37:54;;;;;;;19.00;10.13;;;;;;;;;;5111457;28;20046;-72
2024/01/14 14:41:02;;;;;;;18.20;9.75;;;;;;;;;;5111505;28;20043;-71
2024/01/14 14:44:07;;;;;;;14.80;8.95;;;;;;;;;;5111596;28;20027;-72
2024/01/14 14:47:12;;;;;;;19.05;11.40;;;;;;;;;;5111267;28;20411;-73
2024/01/14 14:50:17;;;;;;;17.60;9.68;;;;;;;;;;5111540;28;20039;-72
2024/01/14 14:53:21;;;;;;;12.90;9.52;;;;;;;;;;5110686;28;20502;-72
2024/01/14 14:56:25;;;;;;;18.45;11.48;;;;;;;;;;5111437;28;20368;-72
2024/01/14 14:59:29;;;;;;;15.02;9.85;;;;;;;;;;5111161;28;20031;-72
2024/01/14 15:02:34;;;;;;;17.10;9.77;;;;;;;;;;5110988;28;20035;-72
2024/01/14 15:05:38;;;;;;;12.93;8.02;;;;;;;;;;5111203;28;20047;-72
2024/01/14 15:08:43;;;;;;;17.15;10.27;;;;;;;;;;5110965;28;20040;-72
2024/01/14 15:11:47;;;;;;;19.30;10.63;;;;;;;;;;5111194;28;20038;-72
2024/01/14 15:14:51;;;;;;;17.30;9.88;;;;;;;;;;5110504;28;20043;-72
2024/01/14 15:17:56;;;;;;;16.35;9.50;;;;;;;;;;5110394;28;20035;-72
2024/01/14 15:21:00;;;;;;;22.98;13.65;;;;;;;;;;5110941;28;20047;-72
2024/01/14 15:24:05;;;;;;;32.15;18.52;;;;;;;;;;5110876;28;20042;-70
2024/01/14 15:27:11;;;;;;;30.83;20.25;;;;;;;;;;5109591;28;20503;-71
2024/01/14 15:30:16;;;;;;;28.67;17.75;;;;;;;;;;5111097;28;20383;-72
2024/01/14 15:33:20;;;;;;;41.13;24.17;;;;;;;;;;5110866;28;20514;-70
2024/01/14 15:36:24;;;;;;;39.65;25.27;;;;;;;;;;5111124;28;20047;-70
2024/01/14 15:39:29;;;;;;;32.42;22.45;;;;;;;;;;5111330;28;20050;-70
2024/01/14 15:42:33;;;;;;;44.00;26.52;;;;;;;;;;5114155;28;20046;-70
2024/01/14 15:45:37;;;;;;;42.47;26.55;;;;;;;;;;5112905;28;20046;-70
2024/01/14 15:48:42;;;;;;;45.15;30.38;;;;;;;;;;5114522;28;20506;-70
2024/01/14 15:51:46;;;;;;;55.72;33.75;;;;;;;;;;5114617;28;20042;-70
2024/01/14 15:54:51;;;;;;;48.70;30.55;;;;;;;;;;5114510;28;20046;-70
2024/01/14 15:57:55;;;;;;;42.67;29.02;;;;;;;;;;5113328;28;20043;-70
2024/01/14 16:00:59;;;;;;;43.25;26.73;;;;;;;;;;5113451;28;20047;-70
2024/01/14 16:04:04;;;;;;;48.80;29.77;;;;;;;;;;5114071;28;20498;-70
2024/01/14 16:07:08;;;;;;;49.33;29.23;;;;;;;;;;5113099;28;20054;-70
2024/01/14 16:10:14;;;;;;;48.25;30.58;;;;;;;;;;5113837;28;20047;-71
2024/01/14 16:13:19;;;;;;;59.88;37.38;;;;;;;;;;5113830;28;20047;-70
2024/01/14 16:16:25;;;;;;;49.97;32.20;;;;;;;;;;5113182;28;20470;-70
2024/01/14 16:19:29;;;;;;;72.80;42.28;;;;;;;;;;5112636;28;20055;-70
2024/01/14 16:22:33;;;;;;;55.50;34.22;;;;;;;;;;5113897;28;20047;-70
2024/01/14 16:25:38;;;;;;;58.55;36.22;;;;;;;;;;5113886;28;20058;-70
2024/01/14 16:28:43;;;;;;;90.90;50.72;;;;;;;;;;5113755;28;20585;-72